sensor_id;sensor_type;location;lat;lon;timestamp;pressure;altitude;pressure_sealevel;temperature;humidity
37856;BME280;23694;43.274;26.924;2023-03-24T00:00:19;99045.31;;;7.33;98.82
37856;BME280;23694;43.274;26.924;2023-03-24T00:02:48;99055.81;;;7.31;99.58
37856;BME280;23694;43.274;26.924;2023-03-24T00:05:17;99045.13;;;7.36;99.40
37856;BME280;23694;43.274;26.924;2023-03-24T00:07:44;99048.84;;;7.32;99.47
37856;BME280;23694;43.274;26.924;2023-03-24T00:10:16;99045.63;;;7.27;99.42
37856;BME280;23694;43.274;26.924;2023-03-24T00:12:44;99043.88;;;7.27;99.52
37856;BME280;23694;43.274;26.924;2023-03-24T00:15:17;99035.44;;;7.22;100.00
37856;BME280;23694;43.274;26.924;2023-03-24T00:17:47;99038.91;;;7.23;99.68
37856;BME280;23694;43.274;26.924;2023-03-24T00:20:19;99035.03;;;7.30;99.54
37856;BME280;23694;43.274;26.924;2023-03-24T00:22:49;99031.25;;;7.20;99.48
37856;BME280;23694;43.274;26.924;2023-03-24T00:25:17;99036.25;;;7.07;100.00
37856;BME280;23694;43.274;26.924;2023-03-24T00:27:44;99030.63;;;7.15;100.00
37856;BME280;23694;43.274;26.924;2023-03-24T00:30:14;99035.44;;;7.22;100.00
37856;BME280;23694;43.274;26.924;2023-03-24T00:32:41;99026.13;;;7.18;99.77
37856;BME280;23694;43.274;26.924;2023-03-24T00:35:10;99033.94;;;7.18;100.00
37856;BME280;23694;43.274;26.924;2023-03-24T00:37:38;99034.38;;;7.26;99.78
37856;BME280;23694;43.274;26.924;2023-03-24T00:40:11;99035.88;;;7.30;99.73
37856;BME280;23694;43.274;26.924;2023-03-24T00:42:42;99034.03;;;7.32;99.41
37856;BME280;23694;43.274;26.924;2023-03-24T00:45:17;99033.13;;;7.34;98.43
37856;BME280;23694;43.274;26.924;2023-03-24T00:47:45;99032.69;;;7.41;97.88
37856;BME280;23694;43.274;26.924;2023-03-24T00:50:16;99034.38;;;7.42;97.52
37856;BME280;23694;43.274;26.924;2023-03-24T00:52:43;99032.78;;;7.40;97.23
37856;BME280;23694;43.274;26.924;2023-03-24T00:55:13;99034.84;;;7.17;97.98
37856;BME280;23694;43.274;26.924;2023-03-24T00:57:45;99037.53;;;7.16;98.06
37856;BME280;23694;43.274;26.924;2023-03-24T01:00:17;99028.81;;;7.17;98.34
37856;BME280;23694;43.274;26.924;2023-03-24T01:02:47;99035.44;;;7.22;97.97
37856;BME280;23694;43.274;26.924;2023-03-24T01:05:13;99033.94;;;7.18;98.13
37856;BME280;23694;43.274;26.924;2023-03-24T01:07:42;99031.72;;;7.11;98.64
37856;BME280;23694;43.274;26.924;2023-03-24T01:10:12;99038.38;;;7.16;98.13
37856;BME280;23694;43.274;26.924;2023-03-24T01:12:38;99031.63;;;7.12;98.50
37856;BME280;23694;43.274;26.924;2023-03-24T01:15:14;99031.50;;;7.15;98.57
37856;BME280;23694;43.274;26.924;2023-03-24T01:17:41;99032.25;;;7.17;98.29
37856;BME280;23694;43.274;26.924;2023-03-24T01:20:08;99036.34;;;6.88;99.09
37856;BME280;23694;43.274;26.924;2023-03-24T01:22:38;99030.31;;;6.88;99.85
37856;BME280;23694;43.274;26.924;2023-03-24T01:25:10;99023.50;;;6.85;100.00
37856;BME280;23694;43.274;26.924;2023-03-24T01:27:37;99028.47;;;6.90;100.00
37856;BME280;23694;43.274;26.924;2023-03-24T01:30:05;99029.38;;;6.89;100.00
37856;BME280;23694;43.274;26.924;2023-03-24T01:32:31;99022.56;;;6.86;99.98
37856;BME280;23694;43.274;26.924;2023-03-24T01:34:57;99026.78;;;6.89;99.81
37856;BME280;23694;43.274;26.924;2023-03-24T01:37:23;99024.34;;;6.86;100.00
37856;BME280;23694;43.274;26.924;2023-03-24T01:39:50;99026.78;;;6.89;100.00
37856;BME280;23694;43.274;26.924;2023-03-24T01:42:18;99026.88;;;6.87;100.00
37856;BME280;23694;43.274;26.924;2023-03-24T01:44:50;99015.69;;;6.85;100.00
37856;BME280;23694;43.274;26.924;2023-03-24T01:47:16;99025.78;;;6.91;100.00
37856;BME280;23694;43.274;26.924;2023-03-24T01:49:50;99024.50;;;6.83;100.00
37856;BME280;23694;43.274;26.924;2023-03-24T01:52:24;99031.47;;;6.82;100.00
37856;BME280;23694;43.274;26.924;2023-03-24T01:54:59;99020.38;;;6.79;100.00
37856;BME280;23694;43.274;26.924;2023-03-24T01:57:30;99028.09;;;6.80;100.00
37856;BME280;23694;43.274;26.924;2023-03-24T02:00:00;99034.06;;;6.82;100.00
37856;BME280;23694;43.274;26.924;2023-03-24T02:02:30;99027.50;;;6.75;100.00
37856;BME280;23694;43.274;26.924;2023-03-24T02:05:02;99038.00;;;6.74;100.00
37856;BME280;23694;43.274;26.924;2023-03-24T02:07:36;99036.00;;;6.79;100.00
37856;BME280;23694;43.274;26.924;2023-03-24T02:10:10;99033.47;;;6.77;100.00
37856;BME280;23694;43.274;26.924;2023-03-24T02:12:39;99035.63;;;6.69;100.00
37856;BME280;23694;43.274;26.924;2023-03-24T02:15:07;99040.06;;;6.67;100.00
37856;BME280;23694;43.274;26.924;2023-03-24T02:20:51;99045.66;;;6.59;100.00
37856;BME280;23694;43.274;26.924;2023-03-24T02:29:29;99052.56;;;6.60;100.00
37856;BME280;23694;43.274;26.924;2023-03-24T02:40:59;99055.75;;;6.48;100.00
37856;BME280;23694;43.274;26.924;2023-03-24T02:43:42;99060.75;;;6.53;100.00
37856;BME280;23694;43.274;26.924;2023-03-24T02:49:28;99058.97;;;6.53;100.00
37856;BME280;23694;43.274;26.924;2023-03-24T02:52:21;99068.09;;;6.62;100.00
37856;BME280;23694;43.274;26.924;2023-03-24T02:55:01;99068.31;;;6.57;100.00
37856;BME280;23694;43.274;26.924;2023-03-24T03:00:35;99036.00;;;6.61;100.00
37856;BME280;23694;43.274;26.924;2023-03-24T03:03:49;99010.75;;;6.63;100.00
37856;BME280;23694;43.274;26.924;2023-03-24T03:06:11;98998.13;;;6.56;100.00
37856;BME280;23694;43.274;26.924;2023-03-24T03:08:40;99005.78;;;6.59;100.00
37856;BME280;23694;43.274;26.924;2023-03-24T03:11:08;99012.50;;;6.63;100.00
37856;BME280;23694;43.274;26.924;2023-03-24T03:13:41;99017.41;;;6.69;100.00
37856;BME280;23694;43.274;26.924;2023-03-24T03:16:15;99014.75;;;6.53;100.00
37856;BME280;23694;43.274;26.924;2023-03-24T03:18:49;99015.78;;;6.49;100.00
37856;BME280;23694;43.274;26.924;2023-03-24T03:21:19;99023.44;;;6.35;100.00
37856;BME280;23694;43.274;26.924;2023-03-24T03:23:54;99009.97;;;5.92;100.00
37856;BME280;23694;43.274;26.924;2023-03-24T03:26:23;99016.41;;;5.65;100.00
37856;BME280;23694;43.274;26.924;2023-03-24T03:28:56;99010.72;;;5.76;100.00
37856;BME280;23694;43.274;26.924;2023-03-24T03:31:30;99008.88;;;5.78;100.00
37856;BME280;23694;43.274;26.924;2023-03-24T03:34:23;99008.34;;;5.90;100.00
37856;BME280;23694;43.274;26.924;2023-03-24T03:39:48;99018.06;;;6.03;100.00
37856;BME280;23694;43.274;26.924;2023-03-24T03:42:17;99008.84;;;6.15;100.00
37856;BME280;23694;43.274;26.924;2023-03-24T03:44:43;99007.97;;;5.79;100.00
37856;BME280;23694;43.274;26.924;2023-03-24T03:47:10;99006.91;;;5.83;100.00
37856;BME280;23694;43.274;26.924;2023-03-24T03:49:36;99003.09;;;6.09;100.00
37856;BME280;23694;43.274;26.924;2023-03-24T03:52:03;99001.88;;;6.16;100.00
37856;BME280;23694;43.274;26.924;2023-03-24T03:54:30;98998.50;;;5.96;100.00
37856;BME280;23694;43.274;26.924;2023-03-24T03:56:58;98986.72;;;5.89;100.00
37856;BME280;23694;43.274;26.924;2023-03-24T03:59:35;98996.59;;;6.17;100.00
37856;BME280;23694;43.274;26.924;2023-03-24T04:04:42;98999.56;;;6.27;100.00
37856;BME280;23694;43.274;26.924;2023-03-24T04:07:21;98986.41;;;6.30;100.00
37856;BME280;23694;43.274;26.924;2023-03-24T04:10:42;98998.06;;;6.23;100.00
37856;BME280;23694;43.274;26.924;2023-03-24T04:18:42;99010.75;;;6.12;100.00
37856;BME280;23694;43.274;26.924;2023-03-24T04:27:37;99022.94;;;5.73;100.00
37856;BME280;23694;43.274;26.924;2023-03-24T04:31:03;99021.00;;;5.60;100.00
37856;BME280;23694;43.274;26.924;2023-03-24T04:33:16;99031.09;;;5.66;100.00
37856;BME280;23694;43.274;26.924;2023-03-24T04:35:52;99033.34;;;5.73;100.00
37856;BME280;23694;43.274;26.924;2023-03-24T04:38:25;99035.56;;;5.81;100.00
37856;BME280;23694;43.274;26.924;2023-03-24T04:40:53;99036.84;;;5.72;100.00
37856;BME280;23694;43.274;26.924;2023-03-24T04:43:23;99038.69;;;5.89;100.00
37856;BME280;23694;43.274;26.924;2023-03-24T04:45:52;99042.25;;;6.06;100.00
37856;BME280;23694;43.274;26.924;2023-03-24T04:48:23;99044.31;;;6.16;100.00
37856;BME280;23694;43.274;26.924;2023-03-24T04:50:56;99047.38;;;6.24;100.00
37856;BME280;23694;43.274;26.924;2023-03-24T04:53:23;99042.13;;;6.43;100.00
37856;BME280;23694;43.274;26.924;2023-03-24T04:58:17;99049.91;;;8.68;92.47
37856;BME280;23694;43.274;26.924;2023-03-24T05:00:43;99045.28;;;10.00;83.63
37856;BME280;23694;43.274;26.924;2023-03-24T05:03:11;99048.91;;;11.16;76.99
37856;BME280;23694;43.274;26.924;2023-03-24T05:05:46;99046.22;;;12.27;68.81
37856;BME280;23694;43.274;26.924;2023-03-24T05:08:13;99058.38;;;12.87;63.07
37856;BME280;23694;43.274;26.924;2023-03-24T05:10:39;99058.84;;;13.72;59.54
37856;BME280;23694;43.274;26.924;2023-03-24T05:13:06;99069.38;;;13.72;56.39
37856;BME280;23694;43.274;26.924;2023-03-24T05:15:32;99061.19;;;14.41;56.21
37856;BME280;23694;43.274;26.924;2023-03-24T05:17:59;99067.53;;;15.33;52.76
37856;BME280;23694;43.274;26.924;2023-03-24T05:20:26;99061.44;;;16.03;49.46
37856;BME280;23694;43.274;26.924;2023-03-24T05:22:52;99067.59;;;16.90;46.38
37856;BME280;23694;43.274;26.924;2023-03-24T05:25:19;99075.09;;;17.61;44.37
37856;BME280;23694;43.274;26.924;2023-03-24T05:27:46;99069.66;;;18.17;42.88
37856;BME280;23694;43.274;26.924;2023-03-24T05:30:13;99061.59;;;18.72;41.15
37856;BME280;23694;43.274;26.924;2023-03-24T05:32:39;99067.81;;;18.98;40.15
37856;BME280;23694;43.274;26.924;2023-03-24T05:35:06;99074.66;;;18.65;40.55
37856;BME280;23694;43.274;26.924;2023-03-24T05:37:32;99075.00;;;19.06;40.96
37856;BME280;23694;43.274;26.924;2023-03-24T05:39:58;99067.16;;;19.30;39.33
37856;BME280;23694;43.274;26.924;2023-03-24T05:42:24;99068.53;;;20.03;38.86
37856;BME280;23694;43.274;26.924;2023-03-24T05:44:50;99068.09;;;19.73;38.29
37856;BME280;23694;43.274;26.924;2023-03-24T05:47:17;99071.66;;;18.51;40.23
37856;BME280;23694;43.274;26.924;2023-03-24T05:49:45;99074.81;;;17.73;43.25
37856;BME280;23694;43.274;26.924;2023-03-24T05:52:12;99081.38;;;17.60;43.95
37856;BME280;23694;43.274;26.924;2023-03-24T05:54:41;99071.53;;;18.34;42.01
37856;BME280;23694;43.274;26.924;2023-03-24T05:57:12;99084.94;;;19.04;40.84
37856;BME280;23694;43.274;26.924;2023-03-24T05:59:39;99077.94;;;19.03;40.73
37856;BME280;23694;43.274;26.924;2023-03-24T06:02:05;99070.34;;;20.61;37.12
37856;BME280;23694;43.274;26.924;2023-03-24T06:04:32;99065.22;;;20.92;36.61
37856;BME280;23694;43.274;26.924;2023-03-24T06:06:58;99073.16;;;21.40;35.59
37856;BME280;23694;43.274;26.924;2023-03-24T06:09:26;99071.88;;;22.23;33.95
37856;BME280;23694;43.274;26.924;2023-03-24T06:11:56;99067.34;;;23.15;32.96
37856;BME280;23694;43.274;26.924;2023-03-24T06:14:22;99052.97;;;24.04;31.19
37856;BME280;23694;43.274;26.924;2023-03-24T06:16:48;99058.53;;;23.88;31.13
37856;BME280;23694;43.274;26.924;2023-03-24T06:19:17;99052.84;;;22.49;32.48
37856;BME280;23694;43.274;26.924;2023-03-24T06:21:47;99054.47;;;19.16;38.78
37856;BME280;23694;43.274;26.924;2023-03-24T06:24:16;99046.22;;;18.22;41.67
37856;BME280;23694;43.274;26.924;2023-03-24T06:26:42;99059.00;;;17.82;44.17
37856;BME280;23694;43.274;26.924;2023-03-24T06:29:10;99062.72;;;17.52;45.06
37856;BME280;23694;43.274;26.924;2023-03-24T06:31:37;99060.28;;;15.86;49.43
37856;BME280;23694;43.274;26.924;2023-03-24T06:34:04;99059.94;;;15.39;52.67
37856;BME280;23694;43.274;26.924;2023-03-24T06:36:31;99059.34;;;15.05;54.29
37856;BME280;23694;43.274;26.924;2023-03-24T06:39:00;99066.13;;;14.34;56.90
37856;BME280;23694;43.274;26.924;2023-03-24T06:41:27;99072.47;;;13.44;61.47
37856;BME280;23694;43.274;26.924;2023-03-24T06:43:53;99066.13;;;12.43;66.99
37856;BME280;23694;43.274;26.924;2023-03-24T06:46:19;99057.97;;;11.61;73.63
37856;BME280;23694;43.274;26.924;2023-03-24T06:48:45;99058.53;;;12.03;72.07
37856;BME280;23694;43.274;26.924;2023-03-24T06:51:11;99064.81;;;12.37;71.49
37856;BME280;23694;43.274;26.924;2023-03-24T06:53:37;99070.44;;;10.56;79.21
37856;BME280;23694;43.274;26.924;2023-03-24T06:56:06;99064.41;;;10.94;79.90
37856;BME280;23694;43.274;26.924;2023-03-24T06:58:33;99056.56;;;11.94;75.95
37856;BME280;23694;43.274;26.924;2023-03-24T07:01:00;99063.97;;;11.51;77.46
37856;BME280;23694;43.274;26.924;2023-03-24T07:03:26;99061.09;;;12.40;73.84
37856;BME280;23694;43.274;26.924;2023-03-24T07:05:52;99055.84;;;12.75;71.02
37856;BME280;23694;43.274;26.924;2023-03-24T07:08:18;99064.00;;;12.00;74.37
37856;BME280;23694;43.274;26.924;2023-03-24T07:10:45;99058.84;;;11.36;77.93
37856;BME280;23694;43.274;26.924;2023-03-24T07:13:12;99069.34;;;10.98;81.73
37856;BME280;23694;43.274;26.924;2023-03-24T07:15:38;99069.06;;;11.90;79.26
37856;BME280;23694;43.274;26.924;2023-03-24T07:18:04;99070.13;;;12.59;74.01
37856;BME280;23694;43.274;26.924;2023-03-24T07:20:31;99069.84;;;13.32;71.64
37856;BME280;23694;43.274;26.924;2023-03-24T07:22:57;99072.59;;;13.76;68.14
37856;BME280;23694;43.274;26.924;2023-03-24T07:25:24;99073.31;;;13.89;67.57
37856;BME280;23694;43.274;26.924;2023-03-24T07:27:54;99061.13;;;14.20;68.22
37856;BME280;23694;43.274;26.924;2023-03-24T07:30:23;99070.72;;;14.64;66.33
37856;BME280;23694;43.274;26.924;2023-03-24T07:32:50;99064.34;;;14.67;65.43
37856;BME280;23694;43.274;26.924;2023-03-24T07:35:16;99064.53;;;14.00;67.06
37856;BME280;23694;43.274;26.924;2023-03-24T07:37:43;99066.16;;;14.23;67.47
37856;BME280;23694;43.274;26.924;2023-03-24T07:40:10;99063.75;;;14.42;67.67
37856;BME280;23694;43.274;26.924;2023-03-24T07:42:40;99065.38;;;14.75;64.92
37856;BME280;23694;43.274;26.924;2023-03-24T07:45:09;99072.63;;;14.83;63.90
37856;BME280;23694;43.274;26.924;2023-03-24T07:47:36;99064.84;;;14.61;64.70
37856;BME280;23694;43.274;26.924;2023-03-24T07:50:04;99063.25;;;14.69;64.48
37856;BME280;23694;43.274;26.924;2023-03-24T07:52:38;99064.19;;;14.47;65.56
37856;BME280;23694;43.274;26.924;2023-03-24T07:55:07;99078.44;;;13.90;66.21
37856;BME280;23694;43.274;26.924;2023-03-24T07:57:34;99071.88;;;13.51;67.48
37856;BME280;23694;43.274;26.924;2023-03-24T08:00:06;99071.44;;;12.54;71.27
37856;BME280;23694;43.274;26.924;2023-03-24T08:03:01;99058.94;;;13.15;71.26
37856;BME280;23694;43.274;26.924;2023-03-24T08:05:29;99060.16;;;13.22;71.69
37856;BME280;23694;43.274;26.924;2023-03-24T08:07:55;99056.31;;;13.59;69.44
37856;BME280;23694;43.274;26.924;2023-03-24T08:10:27;99061.91;;;14.00;68.03
37856;BME280;23694;43.274;26.924;2023-03-24T08:12:54;99065.78;;;13.84;67.32
37856;BME280;23694;43.274;26.924;2023-03-24T08:15:21;99059.88;;;13.92;67.24
37856;BME280;23694;43.274;26.924;2023-03-24T08:17:48;99050.25;;;14.13;66.56
37856;BME280;23694;43.274;26.924;2023-03-24T08:20:15;99052.88;;;13.48;68.26
37856;BME280;23694;43.274;26.924;2023-03-24T08:22:43;99056.09;;;13.40;68.78
37856;BME280;23694;43.274;26.924;2023-03-24T08:25:10;99050.47;;;13.56;67.17
37856;BME280;23694;43.274;26.924;2023-03-24T08:27:38;99053.59;;;13.72;67.23
37856;BME280;23694;43.274;26.924;2023-03-24T08:30:07;99040.78;;;13.79;67.33
37856;BME280;23694;43.274;26.924;2023-03-24T08:32:34;99051.19;;;13.58;68.53
37856;BME280;23694;43.274;26.924;2023-03-24T08:35:01;99045.16;;;14.01;66.90
37856;BME280;23694;43.274;26.924;2023-03-24T08:37:30;99036.09;;;13.82;65.84
37856;BME280;23694;43.274;26.924;2023-03-24T08:39:56;99031.78;;;13.81;67.67
37856;BME280;23694;43.274;26.924;2023-03-24T08:42:24;99028.59;;;14.10;66.58
37856;BME280;23694;43.274;26.924;2023-03-24T08:44:51;99025.28;;;14.28;66.10
37856;BME280;23694;43.274;26.924;2023-03-24T08:47:17;99027.97;;;14.17;64.51
37856;BME280;23694;43.274;26.924;2023-03-24T08:49:43;99019.59;;;14.55;63.18
37856;BME280;23694;43.274;26.924;2023-03-24T08:52:09;99023.13;;;14.34;63.31
37856;BME280;23694;43.274;26.924;2023-03-24T08:54:35;99018.84;;;14.33;63.39
37856;BME280;23694;43.274;26.924;2023-03-24T08:57:01;99019.53;;;14.35;62.49
37856;BME280;23694;43.274;26.924;2023-03-24T08:59:27;99017.06;;;14.75;61.09
37856;BME280;23694;43.274;26.924;2023-03-24T09:01:56;99014.09;;;14.89;57.10
37856;BME280;23694;43.274;26.924;2023-03-24T09:04:22;99020.47;;;14.86;56.52
37856;BME280;23694;43.274;26.924;2023-03-24T09:06:49;99012.66;;;14.96;56.63
37856;BME280;23694;43.274;26.924;2023-03-24T09:09:14;99009.75;;;14.99;55.36
37856;BME280;23694;43.274;26.924;2023-03-24T09:11:40;99001.25;;;14.54;56.70
37856;BME280;23694;43.274;26.924;2023-03-24T09:14:06;99001.25;;;14.75;55.35
37856;BME280;23694;43.274;26.924;2023-03-24T09:16:33;98995.59;;;15.00;55.37
37856;BME280;23694;43.274;26.924;2023-03-24T09:18:59;98998.31;;;15.19;52.00
37856;BME280;23694;43.274;26.924;2023-03-24T09:21:25;98992.38;;;14.97;52.72
37856;BME280;23694;43.274;26.924;2023-03-24T09:23:51;99000.59;;;14.82;53.11
37856;BME280;23694;43.274;26.924;2023-03-24T09:26:17;98989.03;;;14.74;54.06
37856;BME280;23694;43.274;26.924;2023-03-24T09:28:43;98998.81;;;14.62;53.51
37856;BME280;23694;43.274;26.924;2023-03-24T09:31:10;98990.44;;;14.78;54.51
37856;BME280;23694;43.274;26.924;2023-03-24T09:33:36;99003.44;;;15.11;53.58
37856;BME280;23694;43.274;26.924;2023-03-24T09:36:03;99003.97;;;15.45;52.75
37856;BME280;23694;43.274;26.924;2023-03-24T09:38:30;98998.41;;;14.87;52.96
37856;BME280;23694;43.274;26.924;2023-03-24T09:41:00;98999.31;;;15.28;52.93
37856;BME280;23694;43.274;26.924;2023-03-24T09:43:38;99004.97;;;14.93;53.15
37856;BME280;23694;43.274;26.924;2023-03-24T09:46:17;99004.22;;;15.63;52.27
37856;BME280;23694;43.274;26.924;2023-03-24T09:48:52;98999.53;;;15.86;51.30
37856;BME280;23694;43.274;26.924;2023-03-24T09:51:27;98994.28;;;16.05;50.71
37856;BME280;23694;43.274;26.924;2023-03-24T09:56:43;98990.38;;;16.00;51.54
37856;BME280;23694;43.274;26.924;2023-03-24T10:01:42;98987.44;;;16.12;50.24
37856;BME280;23694;43.274;26.924;2023-03-24T10:04:19;98985.31;;;15.68;50.78
37856;BME280;23694;43.274;26.924;2023-03-24T10:06:47;98967.56;;;15.89;51.15
37856;BME280;23694;43.274;26.924;2023-03-24T10:14:55;98987.59;;;16.21;47.37
37856;BME280;23694;43.274;26.924;2023-03-24T10:28:22;98976.00;;;15.64;50.38
37856;BME280;23694;43.274;26.924;2023-03-24T10:30:53;98977.28;;;15.69;50.92
37856;BME280;23694;43.274;26.924;2023-03-24T10:33:21;98963.13;;;16.18;47.25
37856;BME280;23694;43.274;26.924;2023-03-24T10:35:56;98966.06;;;16.35;47.08
37856;BME280;23694;43.274;26.924;2023-03-24T10:38:24;98972.69;;;16.58;45.33
37856;BME280;23694;43.274;26.924;2023-03-24T10:40:51;98969.09;;;16.69;44.31
37856;BME280;23694;43.274;26.924;2023-03-24T10:43:19;98967.59;;;16.28;41.55
37856;BME280;23694;43.274;26.924;2023-03-24T10:45:49;98962.34;;;16.94;41.82
37856;BME280;23694;43.274;26.924;2023-03-24T10:48:41;98967.72;;;16.45;42.05
37856;BME280;23694;43.274;26.924;2023-03-24T10:53:47;98953.63;;;16.74;42.31
37856;BME280;23694;43.274;26.924;2023-03-24T10:56:21;98959.94;;;16.34;42.82
37856;BME280;23694;43.274;26.924;2023-03-24T10:59:01;98953.91;;;16.71;41.89
37856;BME280;23694;43.274;26.924;2023-03-24T11:01:29;98950.72;;;16.67;41.48
37856;BME280;23694;43.274;26.924;2023-03-24T11:04:01;98940.66;;;17.18;41.86
37856;BME280;23694;43.274;26.924;2023-03-24T11:06:30;98937.91;;;17.09;42.99
37856;BME280;23694;43.274;26.924;2023-03-24T11:09:37;98933.34;;;16.45;43.57
37856;BME280;23694;43.274;26.924;2023-03-24T11:12:03;98936.91;;;16.73;43.74
37856;BME280;23694;43.274;26.924;2023-03-24T11:14:30;98929.16;;;17.36;41.47
37856;BME280;23694;43.274;26.924;2023-03-24T11:17:11;98920.06;;;17.39;39.77
37856;BME280;23694;43.274;26.924;2023-03-24T11:19:49;98930.66;;;17.11;40.88
37856;BME280;23694;43.274;26.924;2023-03-24T11:22:16;98912.44;;;17.54;40.06
37856;BME280;23694;43.274;26.924;2023-03-24T11:24:42;98912.44;;;17.81;39.40
37856;BME280;23694;43.274;26.924;2023-03-24T11:27:12;98909.69;;;17.00;40.51
37856;BME280;23694;43.274;26.924;2023-03-24T11:29:39;98902.44;;;16.65;41.58
37856;BME280;23694;43.274;26.924;2023-03-24T11:32:18;98896.28;;;16.74;41.40
37856;BME280;23694;43.274;26.924;2023-03-24T11:34:49;98902.34;;;16.94;41.10
37856;BME280;23694;43.274;26.924;2023-03-24T11:37:22;98893.28;;;17.24;39.83
37856;BME280;23694;43.274;26.924;2023-03-24T11:42:49;98897.34;;;17.64;39.92
37856;BME280;23694;43.274;26.924;2023-03-24T11:47:56;98880.50;;;18.00;38.92
37856;BME280;23694;43.274;26.924;2023-03-24T11:50:27;98879.09;;;18.32;38.66
37856;BME280;23694;43.274;26.924;2023-03-24T11:53:19;98879.47;;;18.19;38.46
37856;BME280;23694;43.274;26.924;2023-03-24T11:58:47;98880.50;;;18.44;38.22
37856;BME280;23694;43.274;26.924;2023-03-24T12:01:27;98877.00;;;18.44;38.03
37856;BME280;23694;43.274;26.924;2023-03-24T12:04:03;98876.91;;;18.53;37.69
37856;BME280;23694;43.274;26.924;2023-03-24T12:12:08;98853.66;;;18.21;38.60
37856;BME280;23694;43.274;26.924;2023-03-24T12:14:54;98852.75;;;17.69;39.15
37856;BME280;23694;43.274;26.924;2023-03-24T12:22:58;98839.66;;;18.11;38.42
37856;BME280;23694;43.274;26.924;2023-03-24T12:25:40;98839.63;;;18.55;38.33
37856;BME280;23694;43.274;26.924;2023-03-24T12:31:02;98842.78;;;18.06;38.31
37856;BME280;23694;43.274;26.924;2023-03-24T12:33:49;98840.16;;;18.32;38.40
37856;BME280;23694;43.274;26.924;2023-03-24T12:36:27;98835.53;;;18.34;38.62
37856;BME280;23694;43.274;26.924;2023-03-24T12:39:38;98824.34;;;18.83;37.75
37856;BME280;23694;43.274;26.924;2023-03-24T12:42:15;98822.63;;;19.08;36.91
37856;BME280;23694;43.274;26.924;2023-03-24T12:45:06;98820.00;;;19.16;36.19
37856;BME280;23694;43.274;26.924;2023-03-24T12:56:15;98812.50;;;19.03;36.07
37856;BME280;23694;43.274;26.924;2023-03-24T12:59:14;98802.59;;;19.21;35.43
37856;BME280;23694;43.274;26.924;2023-03-24T13:01:45;98791.63;;;19.16;35.20
37856;BME280;23694;43.274;26.924;2023-03-24T13:04:31;98800.91;;;19.12;35.46
37856;BME280;23694;43.274;26.924;2023-03-24T13:07:12;98784.34;;;19.18;35.93
37856;BME280;23694;43.274;26.924;2023-03-24T13:09:44;98790.16;;;19.38;35.42
37856;BME280;23694;43.274;26.924;2023-03-24T13:12:16;98794.47;;;19.39;35.05
37856;BME280;23694;43.274;26.924;2023-03-24T13:14:59;98779.84;;;18.09;37.00
37856;BME280;23694;43.274;26.924;2023-03-24T13:17:35;98782.91;;;17.96;37.45
37856;BME280;23694;43.274;26.924;2023-03-24T13:20:05;98783.28;;;18.27;37.58
37856;BME280;23694;43.274;26.924;2023-03-24T13:22:34;98798.44;;;18.68;36.87
37856;BME280;23694;43.274;26.924;2023-03-24T13:25:03;98781.63;;;18.60;36.91
37856;BME280;23694;43.274;26.924;2023-03-24T13:27:36;98782.66;;;18.33;37.23
37856;BME280;23694;43.274;26.924;2023-03-24T13:30:17;98775.22;;;18.71;36.47
37856;BME280;23694;43.274;26.924;2023-03-24T13:32:53;98776.63;;;18.91;36.19
37856;BME280;23694;43.274;26.924;2023-03-24T13:35:36;98761.50;;;18.83;36.36
37856;BME280;23694;43.274;26.924;2023-03-24T13:38:24;98769.88;;;18.62;36.98
37856;BME280;23694;43.274;26.924;2023-03-24T13:40:54;98768.72;;;18.65;36.35
37856;BME280;23694;43.274;26.924;2023-03-24T13:43:24;98760.72;;;17.97;37.05
37856;BME280;23694;43.274;26.924;2023-03-24T13:45:59;98758.84;;;17.89;37.39
37856;BME280;23694;43.274;26.924;2023-03-24T13:50:59;98754.00;;;18.11;37.46
37856;BME280;23694;43.274;26.924;2023-03-24T13:55:56;98754.63;;;18.64;36.81
37856;BME280;23694;43.274;26.924;2023-03-24T13:58:25;98756.75;;;18.95;36.15
37856;BME280;23694;43.274;26.924;2023-03-24T14:01:33;98756.78;;;19.27;35.46
37856;BME280;23694;43.274;26.924;2023-03-24T14:06:48;98757.25;;;18.98;34.50
37856;BME280;23694;43.274;26.924;2023-03-24T14:09:27;98755.63;;;19.14;31.89
37856;BME280;23694;43.274;26.924;2023-03-24T14:14:22;98752.19;;;18.37;35.44
37856;BME280;23694;43.274;26.924;2023-03-24T14:19:24;98745.31;;;18.60;34.16
37856;BME280;23694;43.274;26.924;2023-03-24T14:21:56;98741.81;;;18.60;34.49
37856;BME280;23694;43.274;26.924;2023-03-24T14:24:23;98739.94;;;18.44;33.19
37856;BME280;23694;43.274;26.924;2023-03-24T14:26:50;98735.06;;;18.65;33.86
37856;BME280;23694;43.274;26.924;2023-03-24T14:29:47;98732.22;;;19.01;32.46
37856;BME280;23694;43.274;26.924;2023-03-24T14:32:19;98735.38;;;19.05;32.27
37856;BME280;23694;43.274;26.924;2023-03-24T14:34:57;98737.53;;;19.09;33.61
37856;BME280;23694;43.274;26.924;2023-03-24T14:37:27;98731.63;;;18.73;34.63
37856;BME280;23694;43.274;26.924;2023-03-24T14:39:55;98725.97;;;18.68;35.24
37856;BME280;23694;43.274;26.924;2023-03-24T14:47:37;98735.22;;;18.22;36.39
37856;BME280;23694;43.274;26.924;2023-03-24T14:50:19;98719.16;;;18.23;36.54
37856;BME280;23694;43.274;26.924;2023-03-24T14:52:52;98719.06;;;18.41;36.11
37856;BME280;23694;43.274;26.924;2023-03-24T14:55:20;98718.19;;;18.32;35.87
37856;BME280;23694;43.274;26.924;2023-03-24T14:58:01;98719.38;;;18.12;36.24
37856;BME280;23694;43.274;26.924;2023-03-24T15:00:33;98714.28;;;18.19;35.96
37856;BME280;23694;43.274;26.924;2023-03-24T15:03:17;98712.38;;;18.03;35.88
37856;BME280;23694;43.274;26.924;2023-03-24T15:05:49;98710.75;;;18.10;35.81
37856;BME280;23694;43.274;26.924;2023-03-24T15:08:22;98708.31;;;18.17;35.31